sensor_id;sensor_type;location;lat;lon;timestamp;pressure;altitude;pressure_sealevel;temperature;humidity
63568;BME280;49715;42.386;20.434;2022-08-18T00:00:04;97212.91;;;22.08;53.59
63568;BME280;49715;42.386;20.434;2022-08-18T00:02:31;97200.97;;;22.04;52.19
63568;BME280;49715;42.386;20.434;2022-08-18T00:04:57;97210.09;;;22.03;52.40
63568;BME280;49715;42.386;20.434;2022-08-18T00:07:29;97218.25;;;21.97;52.56
63568;BME280;49715;42.386;20.434;2022-08-18T00:09:56;97222.28;;;21.88;52.91
63568;BME280;49715;42.386;20.434;2022-08-18T00:14:53;97231.56;;;21.73;53.14
63568;BME280;49715;42.386;20.434;2022-08-18T00:17:21;97223.56;;;21.67;53.38
63568;BME280;49715;42.386;20.434;2022-08-18T00:19:48;97219.59;;;21.57;53.63
63568;BME280;49715;42.386;20.434;2022-08-18T00:22:17;97216.16;;;21.50;53.81
63568;BME280;49715;42.386;20.434;2022-08-18T00:24:47;97217.28;;;21.43;53.90
63568;BME280;49715;42.386;20.434;2022-08-18T00:27:22;97220.03;;;21.36;54.18
63568;BME280;49715;42.386;20.434;2022-08-18T00:29:52;97217.41;;;21.29;54.16
63568;BME280;49715;42.386;20.434;2022-08-18T00:32:29;97221.19;;;21.22;54.43
63568;BME280;49715;42.386;20.434;2022-08-18T00:34:56;97226.63;;;21.15;54.63
63568;BME280;49715;42.386;20.434;2022-08-18T00:37:23;97226.91;;;21.07;54.65
63568;BME280;49715;42.386;20.434;2022-08-18T00:39:52;97229.91;;;20.99;54.86
63568;BME280;49715;42.386;20.434;2022-08-18T00:42:25;97228.69;;;20.95;55.00
63568;BME280;49715;42.386;20.434;2022-08-18T00:44:52;97235.09;;;20.94;55.14
63568;BME280;49715;42.386;20.434;2022-08-18T00:47:19;97223.63;;;20.87;55.26
63568;BME280;49715;42.386;20.434;2022-08-18T00:49:50;97230.19;;;20.91;55.25
63568;BME280;49715;42.386;20.434;2022-08-18T00:52:18;97230.75;;;20.93;55.45
63568;BME280;49715;42.386;20.434;2022-08-18T00:54:46;97234.06;;;20.95;55.42
63568;BME280;49715;42.386;20.434;2022-08-18T00:57:14;97227.88;;;20.94;55.60
63568;BME280;49715;42.386;20.434;2022-08-18T01:00:00;97223.69;;;20.98;55.87
63568;BME280;49715;42.386;20.434;2022-08-18T01:02:35;97231.91;;;21.03;55.30
63568;BME280;49715;42.386;20.434;2022-08-18T01:05:08;97223.25;;;21.01;55.39
63568;BME280;49715;42.386;20.434;2022-08-18T01:07:39;97225.50;;;21.04;55.42
63568;BME280;49715;42.386;20.434;2022-08-18T01:10:17;97229.00;;;21.05;55.49
63568;BME280;49715;42.386;20.434;2022-08-18T01:12:51;97229.59;;;21.07;55.50
63568;BME280;49715;42.386;20.434;2022-08-18T01:15:19;97218.88;;;21.07;55.42
63568;BME280;49715;42.386;20.434;2022-08-18T01:17:47;97217.81;;;21.08;55.54
63568;BME280;49715;42.386;20.434;2022-08-18T01:23:51;97220.34;;;21.03;55.52
63568;BME280;49715;42.386;20.434;2022-08-18T01:26:18;97216.50;;;20.99;55.50
63568;BME280;49715;42.386;20.434;2022-08-18T01:28:48;97230.91;;;20.98;55.70
63568;BME280;49715;42.386;20.434;2022-08-18T01:31:31;97223.19;;;20.90;57.05
63568;BME280;49715;42.386;20.434;2022-08-18T01:34:00;97222.38;;;20.89;55.56
63568;BME280;49715;42.386;20.434;2022-08-18T01:36:27;97222.16;;;20.91;55.67
63568;BME280;49715;42.386;20.434;2022-08-18T01:38:54;97223.78;;;20.92;55.74
63568;BME280;49715;42.386;20.434;2022-08-18T01:41:22;97216.19;;;20.89;55.68
63568;BME280;49715;42.386;20.434;2022-08-18T01:43:49;97212.09;;;20.86;56.07
63568;BME280;49715;42.386;20.434;2022-08-18T01:46:19;97212.38;;;20.78;55.93
63568;BME280;49715;42.386;20.434;2022-08-18T01:48:47;97217.56;;;20.73;55.96
63568;BME280;49715;42.386;20.434;2022-08-18T01:51:14;97214.56;;;20.63;57.48
63568;BME280;49715;42.386;20.434;2022-08-18T01:53:40;97213.97;;;20.61;55.93
63568;BME280;49715;42.386;20.434;2022-08-18T01:56:07;97209.72;;;20.53;56.21
63568;BME280;49715;42.386;20.434;2022-08-18T01:58:34;97217.38;;;20.43;57.61
63568;BME280;49715;42.386;20.434;2022-08-18T02:01:01;97205.28;;;20.40;56.25
63568;BME280;49715;42.386;20.434;2022-08-18T02:03:37;97210.47;;;20.35;56.28
63568;BME280;49715;42.386;20.434;2022-08-18T02:06:08;97225.31;;;20.31;56.24
63568;BME280;49715;42.386;20.434;2022-08-18T02:08:36;97226.16;;;20.25;56.57
63568;BME280;49715;42.386;20.434;2022-08-18T02:11:04;97220.25;;;20.16;56.69
63568;BME280;49715;42.386;20.434;2022-08-18T02:13:32;97225.63;;;20.16;56.78
63568;BME280;49715;42.386;20.434;2022-08-18T02:15:59;97220.50;;;20.08;56.88
63568;BME280;49715;42.386;20.434;2022-08-18T02:18:29;97221.38;;;20.02;57.15
63568;BME280;49715;42.386;20.434;2022-08-18T02:20:57;97226.38;;;19.92;57.39
63568;BME280;49715;42.386;20.434;2022-08-18T02:23:24;97224.78;;;19.84;57.42
63568;BME280;49715;42.386;20.434;2022-08-18T02:25:50;97222.78;;;19.73;57.77
63568;BME280;49715;42.386;20.434;2022-08-18T02:28:17;97224.81;;;19.71;57.90
63568;BME280;49715;42.386;20.434;2022-08-18T02:30:44;97227.13;;;19.67;58.16
63568;BME280;49715;42.386;20.434;2022-08-18T02:33:11;97223.84;;;19.59;58.23
63568;BME280;49715;42.386;20.434;2022-08-18T02:35:38;97217.28;;;19.54;58.20
63568;BME280;49715;42.386;20.434;2022-08-18T02:38:06;97218.50;;;19.52;58.36
63568;BME280;49715;42.386;20.434;2022-08-18T02:40:33;97228.19;;;19.53;58.64
63568;BME280;49715;42.386;20.434;2022-08-18T02:43:08;97226.97;;;19.49;58.66
63568;BME280;49715;42.386;20.434;2022-08-18T02:45:38;97227.56;;;19.51;58.54
63568;BME280;49715;42.386;20.434;2022-08-18T02:48:05;97230.69;;;19.48;58.46
63568;BME280;49715;42.386;20.434;2022-08-18T02:50:32;97219.59;;;19.44;58.81
63568;BME280;49715;42.386;20.434;2022-08-18T02:53:01;97230.06;;;19.46;58.96
63568;BME280;49715;42.386;20.434;2022-08-18T02:55:27;97226.78;;;19.44;58.63
63568;BME280;49715;42.386;20.434;2022-08-18T02:57:54;97225.34;;;19.41;58.95
63568;BME280;49715;42.386;20.434;2022-08-18T03:00:21;97218.16;;;19.35;59.08
63568;BME280;49715;42.386;20.434;2022-08-18T03:02:49;97225.78;;;19.32;59.14
63568;BME280;49715;42.386;20.434;2022-08-18T03:05:17;97226.63;;;19.25;59.48
63568;BME280;49715;42.386;20.434;2022-08-18T03:07:43;97229.53;;;19.24;59.56
63568;BME280;49715;42.386;20.434;2022-08-18T03:10:10;97224.00;;;19.19;59.58
63568;BME280;49715;42.386;20.434;2022-08-18T03:12:37;97225.44;;;19.15;59.80
63568;BME280;49715;42.386;20.434;2022-08-18T03:15:03;97222.13;;;19.13;59.69
63568;BME280;49715;42.386;20.434;2022-08-18T03:17:34;97231.59;;;19.15;59.93
63568;BME280;49715;42.386;20.434;2022-08-18T03:20:00;97223.81;;;19.14;60.03
63568;BME280;49715;42.386;20.434;2022-08-18T03:22:28;97222.13;;;19.13;60.13
63568;BME280;49715;42.386;20.434;2022-08-18T03:24:54;97234.50;;;19.14;60.18
63568;BME280;49715;42.386;20.434;2022-08-18T03:27:21;97226.47;;;19.14;60.08
63568;BME280;49715;42.386;20.434;2022-08-18T03:29:47;97227.06;;;19.16;60.21
63568;BME280;49715;42.386;20.434;2022-08-18T03:32:15;97218.28;;;19.09;60.26
63568;BME280;49715;42.386;20.434;2022-08-18T03:34:42;97218.03;;;19.10;60.26
63568;BME280;49715;42.386;20.434;2022-08-18T03:37:09;97221.94;;;19.14;60.27
63568;BME280;49715;42.386;20.434;2022-08-18T03:39:35;97230.34;;;19.18;60.13
63568;BME280;49715;42.386;20.434;2022-08-18T03:42:02;97230.16;;;19.19;60.25
63568;BME280;49715;42.386;20.434;2022-08-18T03:44:33;97224.63;;;19.14;60.22
63568;BME280;49715;42.386;20.434;2022-08-18T03:47:07;97226.66;;;19.12;60.13
63568;BME280;49715;42.386;20.434;2022-08-18T03:49:35;97229.56;;;19.11;60.40
63568;BME280;49715;42.386;20.434;2022-08-18T03:52:02;97234.47;;;19.07;60.43
63568;BME280;49715;42.386;20.434;2022-08-18T03:54:30;97236.56;;;19.05;60.49
63568;BME280;49715;42.386;20.434;2022-08-18T03:56:57;97231.63;;;19.02;60.48
63568;BME280;49715;42.386;20.434;2022-08-18T03:59:26;97233.25;;;19.03;60.31
63568;BME280;49715;42.386;20.434;2022-08-18T04:01:53;97240.25;;;19.04;60.38
63568;BME280;49715;42.386;20.434;2022-08-18T04:04:25;97248.06;;;19.06;60.34
63568;BME280;49715;42.386;20.434;2022-08-18T04:06:55;97253.81;;;19.02;60.45
63568;BME280;49715;42.386;20.434;2022-08-18T04:09:24;97257.28;;;19.03;60.07
63568;BME280;49715;42.386;20.434;2022-08-18T04:11:52;97253.59;;;18.97;60.46
63568;BME280;49715;42.386;20.434;2022-08-18T04:14:20;97251.38;;;18.88;61.56
63568;BME280;49715;42.386;20.434;2022-08-18T04:16:49;97240.47;;;18.83;60.72
63568;BME280;49715;42.386;20.434;2022-08-18T04:19:16;97245.00;;;18.82;60.47
63568;BME280;49715;42.386;20.434;2022-08-18T04:21:43;97252.41;;;18.73;61.80
63568;BME280;49715;42.386;20.434;2022-08-18T04:24:12;97253.44;;;18.79;60.42
63568;BME280;49715;42.386;20.434;2022-08-18T04:26:42;97261.25;;;18.81;60.61
63568;BME280;49715;42.386;20.434;2022-08-18T04:29:10;97262.06;;;18.81;60.36
63568;BME280;49715;42.386;20.434;2022-08-18T04:31:37;97262.03;;;18.88;60.45
63568;BME280;49715;42.386;20.434;2022-08-18T04:34:04;97262.47;;;18.91;60.54
63568;BME280;49715;42.386;20.434;2022-08-18T04:36:32;97259.19;;;18.89;60.51
63568;BME280;49715;42.386;20.434;2022-08-18T04:39:06;97265.53;;;18.95;60.62
63568;BME280;49715;42.386;20.434;2022-08-18T04:41:34;97269.44;;;18.99;60.61
63568;BME280;49715;42.386;20.434;2022-08-18T04:44:05;97269.66;;;19.04;60.51
63568;BME280;49715;42.386;20.434;2022-08-18T04:46:41;97271.88;;;19.14;60.61
63568;BME280;49715;42.386;20.434;2022-08-18T04:49:10;97264.88;;;19.19;60.33
63568;BME280;49715;42.386;20.434;2022-08-18T04:51:43;97260.13;;;19.21;60.28
63568;BME280;49715;42.386;20.434;2022-08-18T04:54:10;97270.84;;;19.28;59.89
63568;BME280;49715;42.386;20.434;2022-08-18T04:56:38;97285.41;;;19.39;60.02
63568;BME280;49715;42.386;20.434;2022-08-18T04:59:10;97287.22;;;19.45;59.93
63568;BME280;49715;42.386;20.434;2022-08-18T05:01:42;97283.31;;;19.47;60.08
63568;BME280;49715;42.386;20.434;2022-08-18T05:04:12;97292.94;;;19.62;59.78
63568;BME280;49715;42.386;20.434;2022-08-18T05:06:40;97286.78;;;19.68;59.85
63568;BME280;49715;42.386;20.434;2022-08-18T05:09:08;97292.50;;;19.71;59.68
63568;BME280;49715;42.386;20.434;2022-08-18T05:11:37;97302.16;;;19.79;59.77
63568;BME280;49715;42.386;20.434;2022-08-18T05:14:06;97300.47;;;19.85;59.70
63568;BME280;49715;42.386;20.434;2022-08-18T05:16:34;97292.22;;;19.93;59.62
63568;BME280;49715;42.386;20.434;2022-08-18T05:19:09;97297.13;;;19.96;59.75
63568;BME280;49715;42.386;20.434;2022-08-18T05:21:37;97286.19;;;20.04;59.66
63568;BME280;49715;42.386;20.434;2022-08-18T05:24:08;97292.53;;;20.10;59.65
63568;BME280;49715;42.386;20.434;2022-08-18T05:26:35;97290.19;;;20.20;59.67
63568;BME280;49715;42.386;20.434;2022-08-18T05:29:02;97297.16;;;20.27;59.72
63568;BME280;49715;42.386;20.434;2022-08-18T05:31:29;97290.94;;;20.33;59.25
63568;BME280;49715;42.386;20.434;2022-08-18T05:33:56;97290.94;;;20.40;59.06
63568;BME280;49715;42.386;20.434;2022-08-18T05:42:21;97289.53;;;20.63;58.72
63568;BME280;49715;42.386;20.434;2022-08-18T05:44:50;97294.63;;;20.71;58.39
63568;BME280;49715;42.386;20.434;2022-08-18T05:47:26;97300.38;;;20.74;58.36
63568;BME280;49715;42.386;20.434;2022-08-18T05:49:54;97308.63;;;20.73;59.08
63568;BME280;49715;42.386;20.434;2022-08-18T05:55:13;97307.47;;;20.87;58.26
63568;BME280;49715;42.386;20.434;2022-08-18T05:58:03;97300.00;;;20.96;57.91
63568;BME280;49715;42.386;20.434;2022-08-18T06:00:32;97306.94;;;21.03;57.82
63568;BME280;49715;42.386;20.434;2022-08-18T06:03:07;97300.03;;;21.14;57.82
63568;BME280;49715;42.386;20.434;2022-08-18T06:06:01;97299.16;;;21.20;57.77
63568;BME280;49715;42.386;20.434;2022-08-18T06:08:32;97303.59;;;21.33;57.40
63568;BME280;49715;42.386;20.434;2022-08-18T06:11:01;97301.06;;;21.38;57.14
63568;BME280;49715;42.386;20.434;2022-08-18T06:13:29;97305.09;;;21.47;57.34
63568;BME280;49715;42.386;20.434;2022-08-18T06:16:10;97298.59;;;21.55;57.19
63568;BME280;49715;42.386;20.434;2022-08-18T06:24:49;97296.13;;;21.90;56.61
63568;BME280;49715;42.386;20.434;2022-08-18T06:30:50;97303.91;;;22.10;56.63
63568;BME280;49715;42.386;20.434;2022-08-18T06:36:33;97280.22;;;22.25;56.33
63568;BME280;49715;42.386;20.434;2022-08-18T06:41:44;97294.44;;;22.56;56.07
63568;BME280;49715;42.386;20.434;2022-08-18T06:49:53;97299.72;;;22.86;55.62
63568;BME280;49715;42.386;20.434;2022-08-18T06:52:32;97295.44;;;22.97;55.60
63568;BME280;49715;42.386;20.434;2022-08-18T06:55:07;97291.94;;;23.08;55.34
63568;BME280;49715;42.386;20.434;2022-08-18T06:57:39;97283.06;;;23.19;54.97
63568;BME280;49715;42.386;20.434;2022-08-18T07:02:56;97280.59;;;23.41;54.62
63568;BME280;49715;42.386;20.434;2022-08-18T07:05:28;97291.09;;;23.54;54.40
63568;BME280;49715;42.386;20.434;2022-08-18T07:08:16;97284.91;;;23.66;54.04
63568;BME280;49715;42.386;20.434;2022-08-18T07:10:46;97283.84;;;23.78;53.90
63568;BME280;49715;42.386;20.434;2022-08-18T07:13:40;97282.41;;;23.87;53.82
63568;BME280;49715;42.386;20.434;2022-08-18T07:16:31;97284.78;;;24.01;53.74
63568;BME280;49715;42.386;20.434;2022-08-18T07:19:18;97281.00;;;24.13;53.39
63568;BME280;49715;42.386;20.434;2022-08-18T07:22:11;97282.00;;;24.24;53.07
63568;BME280;49715;42.386;20.434;2022-08-18T07:24:46;97278.13;;;24.32;53.10
63568;BME280;49715;42.386;20.434;2022-08-18T07:27:19;97272.69;;;24.44;52.99
63568;BME280;49715;42.386;20.434;2022-08-18T07:32:39;97284.41;;;24.66;52.26
63568;BME280;49715;42.386;20.434;2022-08-18T07:35:08;97276.97;;;24.73;52.31
63568;BME280;49715;42.386;20.434;2022-08-18T07:37:50;97280.97;;;24.87;51.89
63568;BME280;49715;42.386;20.434;2022-08-18T07:40:25;97283.81;;;24.98;51.79
63568;BME280;49715;42.386;20.434;2022-08-18T07:42:58;97282.13;;;25.08;51.56
63568;BME280;49715;42.386;20.434;2022-08-18T07:45:43;97276.31;;;25.16;51.38
63568;BME280;49715;42.386;20.434;2022-08-18T07:48:20;97288.13;;;25.32;51.45
63568;BME280;49715;42.386;20.434;2022-08-18T07:56:45;97294.47;;;25.60;50.58
63568;BME280;49715;42.386;20.434;2022-08-18T07:59:34;97291.56;;;25.66;50.35
63568;BME280;49715;42.386;20.434;2022-08-18T08:07:28;97280.31;;;25.91;49.87
63568;BME280;49715;42.386;20.434;2022-08-18T08:15:18;97281.25;;;26.29;48.82
63568;BME280;49715;42.386;20.434;2022-08-18T08:26:22;97282.84;;;26.79;47.60
63568;BME280;49715;42.386;20.434;2022-08-18T08:31:53;97276.81;;;27.04;47.08
63568;BME280;49715;42.386;20.434;2022-08-18T08:34:39;97272.88;;;27.17;47.47
63568;BME280;49715;42.386;20.434;2022-08-18T08:37:41;97264.00;;;27.27;46.35
63568;BME280;49715;42.386;20.434;2022-08-18T08:40:19;97262.19;;;27.42;47.08
63568;BME280;49715;42.386;20.434;2022-08-18T08:45:25;97248.75;;;27.58;46.53
63568;BME280;49715;42.386;20.434;2022-08-18T08:48:21;97255.88;;;27.74;46.25
63568;BME280;49715;42.386;20.434;2022-08-18T08:50:59;97245.06;;;27.79;46.01
63568;BME280;49715;42.386;20.434;2022-08-18T08:53:57;97239.16;;;27.87;45.27
63568;BME280;49715;42.386;20.434;2022-08-18T08:56:30;97227.78;;;27.95;45.64
63568;BME280;49715;42.386;20.434;2022-08-18T08:59:07;97233.22;;;28.11;45.32
63568;BME280;49715;42.386;20.434;2022-08-18T09:18:59;97217.03;;;29.08;43.18
63568;BME280;49715;42.386;20.434;2022-08-18T09:21:42;97215.66;;;29.20;42.85
63568;BME280;49715;42.386;20.434;2022-08-18T09:24:24;97209.69;;;29.29;42.54
63568;BME280;49715;42.386;20.434;2022-08-18T09:29:55;97203.34;;;29.59;42.45
63568;BME280;49715;42.386;20.434;2022-08-18T09:41:16;97190.28;;;30.10;40.78
63568;BME280;49715;42.386;20.434;2022-08-18T09:51:49;97178.00;;;30.57;39.92
63568;BME280;49715;42.386;20.434;2022-08-18T09:54:21;97177.63;;;30.69;40.31
63568;BME280;49715;42.386;20.434;2022-08-18T10:02:06;97174.81;;;31.08;39.35
63568;BME280;49715;42.386;20.434;2022-08-18T10:04:42;97165.94;;;31.21;38.79
63568;BME280;49715;42.386;20.434;2022-08-18T10:07:35;97163.06;;;31.37;37.83
63568;BME280;49715;42.386;20.434;2022-08-18T10:16:04;97159.41;;;31.89;36.35
63568;BME280;49715;42.386;20.434;2022-08-18T10:21:27;97161.75;;;32.15;35.98
63568;BME280;49715;42.386;20.434;2022-08-18T10:40:12;97140.44;;;33.01;33.09
63568;BME280;49715;42.386;20.434;2022-08-18T10:50:27;97132.44;;;33.60;31.68
63568;BME280;49715;42.386;20.434;2022-08-18T10:58:06;97124.84;;;33.93;30.78
63568;BME280;49715;42.386;20.434;2022-08-18T11:06:06;97114.50;;;34.26;29.54
63568;BME280;49715;42.386;20.434;2022-08-18T11:08:37;97120.72;;;34.40;29.85
63568;BME280;49715;42.386;20.434;2022-08-18T11:11:10;97110.38;;;34.51;29.60
63568;BME280;49715;42.386;20.434;2022-08-18T11:19:13;97112.13;;;35.09;28.46
63568;BME280;49715;42.386;20.434;2022-08-18T11:21:43;97106.34;;;35.19;28.54
63568;BME280;49715;42.386;20.434;2022-08-18T11:24:27;97103.75;;;35.23;28.14
63568;BME280;49715;42.386;20.434;2022-08-18T11:27:03;97104.91;;;35.30;28.24
63568;BME280;49715;42.386;20.434;2022-08-18T11:34:40;97102.09;;;35.70;27.25
63568;BME280;49715;42.386;20.434;2022-08-18T11:37:25;97092.75;;;35.89;26.69
63568;BME280;49715;42.386;20.434;2022-08-18T11:39:56;97100.53;;;36.04;27.42
63568;BME280;49715;42.386;20.434;2022-08-18T11:42:29;97093.09;;;36.13;26.35
63568;BME280;49715;42.386;20.434;2022-08-18T11:45:08;97098.56;;;36.30;26.44
63568;BME280;49715;42.386;20.434;2022-08-18T11:50:48;97093.50;;;36.58;25.16
63568;BME280;49715;42.386;20.434;2022-08-18T11:58:57;97105.81;;;36.99;25.86
63568;BME280;49715;42.386;20.434;2022-08-18T12:09:36;97077.53;;;37.37;25.21
63568;BME280;49715;42.386;20.434;2022-08-18T12:12:12;97068.63;;;37.40;25.21
63568;BME280;49715;42.386;20.434;2022-08-18T12:17:40;97055.03;;;37.65;25.29
63568;BME280;49715;42.386;20.434;2022-08-18T12:20:08;97050.19;;;37.82;25.18
63568;BME280;49715;42.386;20.434;2022-08-18T12:22:37;97057.50;;;37.78;25.06
63568;BME280;49715;42.386;20.434;2022-08-18T12:25:07;97045.38;;;37.79;24.73
63568;BME280;49715;42.386;20.434;2022-08-18T12:27:34;97047.88;;;37.93;24.51
63568;BME280;49715;42.386;20.434;2022-08-18T12:30:01;97048.47;;;38.11;24.25
63568;BME280;49715;42.386;20.434;2022-08-18T12:32:29;97037.88;;;38.22;24.38
63568;BME280;49715;42.386;20.434;2022-08-18T12:34:56;97031.81;;;38.28;24.30
63568;BME280;49715;42.386;20.434;2022-08-18T12:37:24;97026.13;;;38.33;24.11
63568;BME280;49715;42.386;20.434;2022-08-18T12:39:52;97019.00;;;38.45;24.47
63568;BME280;49715;42.386;20.434;2022-08-18T12:42:19;97019.84;;;38.57;24.34
63568;BME280;49715;42.386;20.434;2022-08-18T12:44:45;97012.50;;;38.74;23.88
63568;BME280;49715;42.386;20.434;2022-08-18T12:47:22;97018.06;;;38.86;23.34
63568;BME280;49715;42.386;20.434;2022-08-18T12:49:50;97028.72;;;39.00;23.71
63568;BME280;49715;42.386;20.434;2022-08-18T12:52:18;97021.47;;;39.07;23.12
63568;BME280;49715;42.386;20.434;2022-08-18T12:54:45;97019.06;;;39.06;23.72
63568;BME280;49715;42.386;20.434;2022-08-18T12:57:20;97007.22;;;39.18;23.73
63568;BME280;49715;42.386;20.434;2022-08-18T12:59:47;97005.63;;;39.29;23.55
63568;BME280;49715;42.386;20.434;2022-08-18T13:02:14;96994.69;;;39.32;23.46
63568;BME280;49715;42.386;20.434;2022-08-18T13:04:41;96989.66;;;39.34;23.07
63568;BME280;49715;42.386;20.434;2022-08-18T13:07:10;96984.81;;;39.44;22.61
63568;BME280;49715;42.386;20.434;2022-08-18T13:09:37;96983.84;;;39.52;22.79
63568;BME280;49715;42.386;20.434;2022-08-18T13:12:04;96988.19;;;39.65;22.86
63568;BME280;49715;42.386;20.434;2022-08-18T13:14:32;96987.34;;;39.77;22.96
63568;BME280;49715;42.386;20.434;2022-08-18T13:16:59;96975.97;;;39.78;22.28
63568;BME280;49715;42.386;20.434;2022-08-18T13:19:26;96979.13;;;39.93;22.62
63568;BME280;49715;42.386;20.434;2022-08-18T13:21:52;96967.91;;;40.01;21.93
63568;BME280;49715;42.386;20.434;2022-08-18T13:24:19;96973.75;;;40.12;22.11
63568;BME280;49715;42.386;20.434;2022-08-18T13:26:48;96964.22;;;40.09;21.67
63568;BME280;49715;42.386;20.434;2022-08-18T13:29:16;96963.25;;;40.18;21.88
63568;BME280;49715;42.386;20.434;2022-08-18T13:31:44;96971.34;;;40.26;21.68
63568;BME280;49715;42.386;20.434;2022-08-18T13:34:12;96959.31;;;40.34;21.52
63568;BME280;49715;42.386;20.434;2022-08-18T13:36:39;96963.72;;;40.51;21.45
63568;BME280;49715;42.386;20.434;2022-08-18T13:39:13;96963.63;;;40.63;21.71
63568;BME280;49715;42.386;20.434;2022-08-18T13:41:41;96959.50;;;40.73;21.32
63568;BME280;49715;42.386;20.434;2022-08-18T13:44:13;96965.13;;;40.77;21.30
63568;BME280;49715;42.386;20.434;2022-08-18T13:46:52;96970.47;;;40.85;21.61
63568;BME280;49715;42.386;20.434;2022-08-18T13:49:22;96965.38;;;40.87;21.20
63568;BME280;49715;42.386;20.434;2022-08-18T13:52:15;96969.63;;;40.85;19.17
63568;BME280;49715;42.386;20.434;2022-08-18T13:54:42;96969.22;;;40.83;20.93
63568;BME280;49715;42.386;20.434;2022-08-18T13:57:11;96961.91;;;40.75;20.91
63568;BME280;49715;42.386;20.434;2022-08-18T14:02:34;96960.41;;;40.77;20.80
63568;BME280;49715;42.386;20.434;2022-08-18T14:05:04;96958.81;;;40.76;20.77
63568;BME280;49715;42.386;20.434;2022-08-18T16:18:40;96896.78;;;39.95;22.21
63568;BME280;49715;42.386;20.434;2022-08-18T16:21:12;96894.81;;;39.79;22.22
63568;BME280;49715;42.386;20.434;2022-08-18T16:23:43;96900.75;;;39.65;22.54
63568;BME280;49715;42.386;20.434;2022-08-18T16:26:10;96891.94;;;39.48;22.61
63568;BME280;49715;42.386;20.434;2022-08-18T16:28:42;96899.75;;;39.30;23.26
63568;BME280;49715;42.386;20.434;2022-08-18T16:31:08;96905.84;;;39.11;23.33
63568;BME280;49715;42.386;20.434;2022-08-18T16:33:35;96895.91;;;38.94;23.88
63568;BME280;49715;42.386;20.434;2022-08-18T16:36:03;96889.50;;;38.78;23.72
63568;BME280;49715;42.386;20.434;2022-08-18T16:38:34;96901.66;;;38.64;24.32
63568;BME280;49715;42.386;20.434;2022-08-18T16:41:09;96904.09;;;38.54;24.53
63568;BME280;49715;42.386;20.434;2022-08-18T16:43:36;96901.09;;;38.34;24.89
63568;BME280;49715;42.386;20.434;2022-08-18T16:46:08;96890.53;;;38.12;24.88
63568;BME280;49715;42.386;20.434;2022-08-18T16:48:35;96892.81;;;37.98;25.53
63568;BME280;49715;42.386;20.434;2022-08-18T16:51:02;96903.97;;;37.80;25.55
63568;BME280;49715;42.386;20.434;2022-08-18T16:53:29;96901.72;;;37.61;25.46
63568;BME280;49715;42.386;20.434;2022-08-18T16:55:57;96900.19;;;37.40;25.57
63568;BME280;49715;42.386;20.434;2022-08-18T16:58:23;96898.09;;;37.16;25.95
63568;BME280;49715;42.386;20.434;2022-08-18T17:01:08;96905.63;;;36.77;26.08
63568;BME280;49715;42.386;20.434;2022-08-18T17:03:53;96906.00;;;36.67;26.31
63568;BME280;49715;42.386;20.434;2022-08-18T17:06:34;96910.78;;;36.49;26.56
63568;BME280;49715;42.386;20.434;2022-08-18T17:09:02;96908.59;;;36.25;26.69
63568;BME280;49715;42.386;20.434;2022-08-18T17:11:29;96903.41;;;36.02;26.79
63568;BME280;49715;42.386;20.434;2022-08-18T17:13:57;96909.41;;;35.78;27.29
63568;BME280;49715;42.386;20.434;2022-08-18T17:16:26;96910.91;;;35.50;27.22
63568;BME280;49715;42.386;20.434;2022-08-18T17:18:54;96907.84;;;35.25;26.92
63568;BME280;49715;42.386;20.434;2022-08-18T17:21:27;96901.41;;;34.95;27.24
63568;BME280;49715;42.386;20.434;2022-08-18T17:23:56;96913.75;;;34.75;27.39
63568;BME280;49715;42.386;20.434;2022-08-18T17:31:45;96912.66;;;34.05;27.72
63568;BME280;49715;42.386;20.434;2022-08-18T17:34:20;96908.66;;;33.80;28.14
63568;BME280;49715;42.386;20.434;2022-08-18T17:36:55;96919.66;;;33.67;28.49
63568;BME280;49715;42.386;20.434;2022-08-18T17:39:25;96906.63;;;33.41;28.93
63568;BME280;49715;42.386;20.434;2022-08-18T17:41:53;96923.38;;;33.26;29.32
63568;BME280;49715;42.386;20.434;2022-08-18T17:44:41;96919.00;;;33.02;29.38
63568;BME280;49715;42.386;20.434;2022-08-18T17:47:18;96919.03;;;32.75;29.83
63568;BME280;49715;42.386;20.434;2022-08-18T17:49:46;96926.22;;;32.57;30.24
63568;BME280;49715;42.386;20.434;2022-08-18T17:52:43;96925.41;;;32.29;30.74
63568;BME280;49715;42.386;20.434;2022-08-18T17:55:24;96931.25;;;32.09;31.54
63568;BME280;49715;42.386;20.434;2022-08-18T17:58:03;96932.75;;;31.87;32.14
63568;BME280;49715;42.386;20.434;2022-08-18T18:00:32;96944.38;;;31.74;32.26
63568;BME280;49715;42.386;20.434;2022-08-18T18:02:59;96950.66;;;31.56;32.37
63568;BME280;49715;42.386;20.434;2022-08-18T18:05:43;96962.38;;;31.37;32.89
63568;BME280;49715;42.386;20.434;2022-08-18T18:08:15;96937.34;;;30.97;33.09
63568;BME280;49715;42.386;20.434;2022-08-18T18:10:47;96957.81;;;30.95;33.74
63568;BME280;49715;42.386;20.434;2022-08-18T18:13:23;96953.91;;;30.82;34.24
63568;BME280;49715;42.386;20.434;2022-08-18T18:21:06;96961.59;;;30.27;35.49
63568;BME280;49715;42.386;20.434;2022-08-18T18:23:37;96974.25;;;30.13;35.33
63568;BME280;49715;42.386;20.434;2022-08-18T18:26:36;96966.13;;;29.79;36.50
63568;BME280;49715;42.386;20.434;2022-08-18T18:29:16;96972.50;;;29.64;36.26
63568;BME280;49715;42.386;20.434;2022-08-18T18:34:45;96984.63;;;29.32;37.59
63568;BME280;49715;42.386;20.434;2022-08-18T18:37:29;96979.59;;;29.15;36.94
63568;BME280;49715;42.386;20.434;2022-08-18T18:40:04;96994.81;;;29.11;36.78
63568;BME280;49715;42.386;20.434;2022-08-18T18:42:34;96994.56;;;29.03;37.28
63568;BME280;49715;42.386;20.434;2022-08-18T18:45:07;96997.88;;;28.99;37.16
63568;BME280;49715;42.386;20.434;2022-08-18T18:50:38;97001.16;;;28.81;38.86